Canton, GA

5:53 AM EST on December 09, 2019 (GMT -0500)
Canton

Weather History for KCNI - August, 2019

Change the Weather History Date:

Friday, August 30, 2019

  Actual Average (KMGE) Record (KMGE)
Temperature  
Mean Temperature 72 °F -  
Max Temperature 89 °F 83 °F 91 °F (1998)
Min Temperature 55 °F 67 °F 62 °F (2019)
Cooling Degree Days 7    
Growing Degree Days 22 (Base 50)    
Moisture  
Dew Point 58 °F    
Average Humidity 67    
Maximum Humidity 100    
Minimum Humidity 29    
Precipitation  
Precipitation 0.00 in - - ()
Sea Level Pressure  
Sea Level Pressure 30.14 in    
Wind  
Wind Speed 0 mph (ESE)    
Max Wind Speed 6 mph    
Max Gust Speed -    
Visibility 10 miles    
Events      
Averages and records for this station are not official NWS values.
T = Trace of Precipitation, MM = Missing Value Source: NWS Daily Summary

Daily Weather History Graph

Daily Weather History Graph

Search for Another Location

Airport or City:

Astronomy

Aug. 30, 2019 Rise Set
Actual Time 7:09 AM EDT 8:06 PM EDT
Civil Twilight 6:43 AM EDT 8:32 PM EDT
Nautical Twilight 6:13 AM EDT 9:02 PM EDT
Astronomical Twilight 5:41 AM EDT 9:34 PM EDT
Moon 7:11 AM EDT (8/30) 8:42 PM EDT (8/30)
Length of Visible Light 13h 48m
Length of Day
12h 57m
New Moon, 0% of the Moon is Illuminated
Aug 30
New Moon
Sep 5
First Quarter
Sep 14
Full
Sep 21
Last Quarter
Sep 28
New

Hourly Weather History & Observations

Time (EDT) Temp. Heat Index Dew Point Humidity Pressure Visibility Wind Dir Wind Speed Gust Speed Precip Events Conditions
12:15 AM 64.4 °F - 60.8 °F 88% 30.14 in 10.0 mi Calm Calm - N/A   Clear
12:35 AM 64.4 °F - 60.8 °F 88% 30.13 in 10.0 mi Calm Calm - N/A   Clear
12:55 AM 68.0 °F - 59.0 °F 73% 30.13 in 10.0 mi Calm Calm - N/A   Clear
1:15 AM 62.6 °F - 59.0 °F 88% 30.14 in 10.0 mi Calm Calm - N/A   Clear
1:35 AM 60.8 °F - 60.8 °F 100% 30.14 in 10.0 mi Calm Calm - N/A   Clear
1:55 AM 60.8 °F - 60.8 °F 100% 30.14 in 10.0 mi Calm Calm - N/A   Clear
2:15 AM 60.8 °F - 59.0 °F 94% 30.14 in 10.0 mi Calm Calm - N/A   Clear
2:35 AM 59.0 °F - 59.0 °F 100% 30.13 in 10.0 mi Calm Calm - N/A   Clear
2:55 AM 60.8 °F - 60.8 °F 100% 30.13 in 10.0 mi Calm Calm - N/A   Clear
3:15 AM 59.0 °F - 59.0 °F 100% 30.12 in 10.0 mi Calm Calm - N/A   Clear
3:35 AM 60.8 °F - 59.0 °F 94% 30.12 in 10.0 mi Calm Calm - N/A   Clear
3:55 AM 59.0 °F - 59.0 °F 100% 30.12 in 10.0 mi Calm Calm - N/A   Clear
4:15 AM 59.0 °F - 59.0 °F 100% 30.12 in 10.0 mi Calm Calm - N/A   Clear
4:55 AM 59.0 °F - 59.0 °F 100% 30.11 in 10.0 mi Calm Calm - N/A   Clear
5:15 AM 55.4 °F - 55.4 °F 100% 30.12 in 10.0 mi Calm Calm - N/A   Clear
5:35 AM 55.4 °F - 55.4 °F 100% 30.12 in 10.0 mi Calm Calm - N/A   Clear
5:55 AM 59.0 °F - 59.0 °F 100% 30.12 in 10.0 mi Calm Calm - N/A   Clear
6:15 AM 55.4 °F - 55.4 °F 100% 30.13 in 10.0 mi Calm Calm - N/A   Clear
6:35 AM 57.2 °F - 57.2 °F 100% 30.14 in 10.0 mi Calm Calm - N/A   Clear
6:55 AM 59.0 °F - 59.0 °F 100% 30.14 in 10.0 mi Calm Calm - N/A   Clear
7:10 AM 59.0 °F - 57.2 °F 94% 30.14 in 10.0 mi Calm Calm - N/A   Clear
7:35 AM 55.4 °F - 55.4 °F 100% 30.15 in 10.0 mi Calm Calm - N/A   Clear
7:55 AM 55.4 °F - 55.4 °F 100% 30.16 in 10.0 mi Calm Calm - N/A   Clear
8:15 AM 62.6 °F - 59.0 °F 88% 30.17 in 10.0 mi Calm Calm - N/A   Clear
8:35 AM 62.6 °F - 59.0 °F 88% 30.17 in 10.0 mi Calm Calm - N/A   Clear
8:55 AM 64.4 °F - 59.0 °F 83% 30.17 in 10.0 mi Calm Calm - N/A   Clear
9:15 AM 64.4 °F - 60.8 °F 88% 30.18 in 10.0 mi Calm Calm - N/A   Clear
9:35 AM 68.0 °F - 60.8 °F 78% 30.18 in 10.0 mi Calm Calm - N/A   Clear
10:35 AM 77.0 °F - 62.6 °F 61% 30.19 in 10.0 mi Calm Calm - N/A   Clear
10:55 AM 78.8 °F - 59.0 °F 51% 30.19 in 10.0 mi Calm Calm - N/A   Clear
11:15 AM 78.8 °F - 59.0 °F 51% 30.19 in 10.0 mi Calm Calm - N/A   Clear
11:35 AM 80.6 °F 80.8 °F 57.2 °F 45% 30.18 in 10.0 mi Calm Calm - N/A   Clear
11:55 AM 80.6 °F 80.8 °F 57.2 °F 45% 30.18 in 10.0 mi ESE 3.5 mph - N/A   Clear
12:15 PM 82.4 °F 81.4 °F 53.6 °F 37% 30.18 in 10.0 mi Calm Calm - N/A   Clear
12:35 PM 80.6 °F 80.3 °F 53.6 °F 39% 30.18 in 10.0 mi Calm Calm - N/A   Clear
12:55 PM 82.4 °F 81.4 °F 53.6 °F 37% 30.18 in 10.0 mi Calm Calm - N/A   Clear
1:15 PM 86.0 °F 84.2 °F 53.6 °F 33% 30.17 in 10.0 mi Calm Calm - N/A   Clear
1:35 PM 82.4 °F 81.4 °F 53.6 °F 37% 30.16 in 10.0 mi Calm Calm - N/A   Clear
1:55 PM 84.2 °F 82.8 °F 53.6 °F 35% 30.16 in 10.0 mi ESE 4.6 mph - N/A   Clear
2:15 PM 86.0 °F 84.2 °F 53.6 °F 33% 30.15 in 10.0 mi East 4.6 mph - N/A   Clear
2:35 PM 87.8 °F 85.7 °F 53.6 °F 31% 30.14 in 10.0 mi ENE 3.5 mph - N/A   Clear
2:55 PM 87.8 °F 85.7 °F 53.6 °F 31% 30.13 in 10.0 mi East 4.6 mph - N/A   Clear
3:15 PM 87.8 °F - 51.8 °F 29% 30.12 in 10.0 mi Calm Calm - N/A   Clear
3:35 PM 87.8 °F 85.7 °F 53.6 °F 31% 30.12 in 10.0 mi East 4.6 mph - N/A   Clear
3:55 PM 89.6 °F 87.3 °F 53.6 °F 29% 30.11 in 10.0 mi East 3.5 mph - N/A   Clear
4:15 PM 87.8 °F 85.7 °F 53.6 °F 31% 30.11 in 10.0 mi SE 3.5 mph - N/A   Clear
4:35 PM 89.6 °F 87.3 °F 53.6 °F 29% 30.10 in 10.0 mi ESE 3.5 mph - N/A   Clear
4:55 PM 87.8 °F 85.7 °F 53.6 °F 31% 30.10 in 10.0 mi East 5.8 mph - N/A   Clear
5:15 PM 87.8 °F 85.7 °F 53.6 °F 31% 30.10 in 10.0 mi SSE 4.6 mph - N/A   Clear
5:35 PM 87.8 °F 85.7 °F 53.6 °F 31% 30.10 in 10.0 mi SE 4.6 mph - N/A   Clear
5:55 PM 87.8 °F 85.7 °F 53.6 °F 31% 30.09 in 10.0 mi Calm Calm - N/A   Clear
6:15 PM 87.8 °F 85.7 °F 53.6 °F 31% 30.09 in 10.0 mi Calm Calm - N/A   Clear
6:55 PM 86.0 °F 84.5 °F 55.4 °F 35% 30.11 in 10.0 mi Calm Calm - N/A   Clear
7:35 PM 84.2 °F 83.8 °F 59.0 °F 42% 30.12 in 10.0 mi Calm Calm - N/A   Clear
7:55 PM 82.4 °F 82.5 °F 59.0 °F 45% 30.12 in 10.0 mi Calm Calm - N/A   Clear
8:15 PM 82.4 °F 82.5 °F 59.0 °F 45% 30.13 in 10.0 mi Calm Calm - N/A   Clear
8:35 PM 80.6 °F 81.1 °F 59.0 °F 48% 30.13 in 10.0 mi Calm Calm - N/A   Clear
8:55 PM 78.8 °F - 60.8 °F 54% 30.14 in 10.0 mi Calm Calm - N/A   Clear
9:15 PM 77.0 °F - 60.8 °F 57% 30.15 in 10.0 mi Calm Calm - N/A   Clear
9:55 PM 73.4 °F - 62.6 °F 69% 30.16 in 10.0 mi Calm Calm - N/A   Clear
10:15 PM 69.8 °F - 64.4 °F 83% 30.17 in 10.0 mi Calm Calm - N/A   Clear
10:35 PM 71.6 °F - 62.6 °F 73% 30.18 in 10.0 mi Calm Calm - N/A   Clear
10:55 PM 68.0 °F - 64.4 °F 88% 30.19 in 10.0 mi Calm Calm - N/A   Clear
11:15 PM 69.8 °F - 64.4 °F 83% 30.19 in 10.0 mi Calm Calm - N/A   Clear
11:35 PM 68.0 °F - 64.4 °F 88% 30.18 in 10.0 mi Calm Calm - N/A   Clear
11:55 PM 66.2 °F - 64.4 °F 94% 30.19 in 10.0 mi Calm Calm - N/A   Clear